Time;durP1;ratioP1;P1;durP2;ratioP2;P2;SDS_P1;SDS_P2;PMS_P1;PMS_P2;Temp;Humidity;BMP_temperature;BMP_pressure;BME280_temperature;BME280_humidity;BME280_pressure;Samples;Min_cycle;Max_cycle;Signal;HPM_P1;HPM_P2
2022/07/06 00:01:54;;;;;;;8.30;5.40;;;;;;;-141.50;100.00;63355.56;5009185;28;20558;-84
2022/07/06 00:04:21;;;;;;;8.68;4.93;;;;;;;-141.50;100.00;63355.56;5031814;28;20109;-82
2022/07/06 00:06:48;;;;;;;8.75;4.40;;;;;;;-141.50;100.00;63355.56;5032123;28;20132;-85
2022/07/06 00:09:15;;;;;;;11.15;5.03;;;;;;;-141.50;100.00;63355.56;5014362;28;20068;-85
2022/07/06 00:11:42;;;;;;;12.13;5.43;;;;;;;-141.50;100.00;63355.56;5012494;28;20045;-85
2022/07/06 00:14:09;;;;;;;11.40;5.28;;;;;;;-141.50;100.00;63355.56;5031615;28;20119;-84
2022/07/06 00:16:36;;;;;;;9.45;5.10;;;;;;;-141.50;100.00;63355.56;5032687;28;20093;-85
2022/07/06 00:19:02;;;;;;;10.98;4.70;;;;;;;-141.50;100.00;63355.56;5030898;28;20081;-84
2022/07/06 00:21:29;;;;;;;8.50;4.43;;;;;;;-141.50;100.00;63355.56;5031830;28;20049;-83
2022/07/06 00:23:55;;;;;;;7.20;4.40;;;;;;;-141.50;100.00;63355.56;5033332;28;20116;-84
2022/07/06 00:26:22;;;;;;;8.90;4.60;;;;;;;-141.50;100.00;63355.56;5035463;28;20072;-85
2022/07/06 00:28:49;;;;;;;9.00;4.80;;;;;;;-141.50;100.00;63355.56;5036827;28;20229;-85
2022/07/06 00:31:15;;;;;;;10.15;4.85;;;;;;;-141.50;100.00;63355.56;5037339;28;20049;-85
2022/07/06 00:33:42;;;;;;;10.07;4.60;;;;;;;-141.50;100.00;63355.56;5037183;28;20133;-85
2022/07/06 00:36:08;;;;;;;6.47;4.38;;;;;;;-141.50;100.00;63355.56;5035863;28;20136;-84
2022/07/06 00:38:35;;;;;;;7.38;3.92;;;;;;;-141.50;100.00;63355.56;5035014;28;20144;-84
2022/07/06 00:41:02;;;;;;;8.13;4.65;;;;;;;-141.50;100.00;63355.56;5033901;28;20132;-85
2022/07/06 00:43:28;;;;;;;8.57;4.35;;;;;;;-141.50;100.00;63355.56;5034525;28;20501;-84
2022/07/06 00:45:55;;;;;;;8.07;4.75;;;;;;;-141.50;100.00;63355.56;5024058;28;20061;-83
2022/07/06 00:48:21;;;;;;;6.72;4.72;;;;;;;-141.50;100.00;63355.56;5027580;28;20122;-85
2022/07/06 00:50:49;;;;;;;9.65;4.78;;;;;;;-141.50;100.00;63355.56;5034877;28;20136;-84
2022/07/06 00:53:15;;;;;;;7.13;4.15;;;;;;;-141.50;100.00;63355.56;5035500;28;20453;-84
2022/07/06 00:55:42;;;;;;;7.88;4.93;;;;;;;-141.50;100.00;63355.56;5035783;28;20053;-84
2022/07/06 00:58:09;;;;;;;5.40;4.20;;;;;;;-141.50;100.00;63355.56;5035726;28;20151;-85
2022/07/06 01:00:36;;;;;;;8.25;4.47;;;;;;;-141.50;100.00;63355.56;5035694;28;20080;-83
2022/07/06 01:03:03;;;;;;;6.47;4.10;;;;;;;-141.50;100.00;63355.56;5036190;28;20085;-81
2022/07/06 01:05:29;;;;;;;6.90;4.25;;;;;;;-141.50;100.00;63355.56;5036082;28;20468;-83
2022/07/06 01:07:56;;;;;;;12.98;4.03;;;;;;;-141.50;100.00;63355.56;5018242;28;20049;-83
2022/07/06 01:10:26;;;;;;;8.43;4.38;;;;;;;-141.50;100.00;63355.56;5036605;28;20042;-84
2022/07/06 01:12:53;;;;;;;6.35;4.47;;;;;;;-141.50;100.00;63355.56;5019055;28;20079;-84
2022/07/06 01:15:22;;;;;;;7.13;4.63;;;;;;;-141.50;100.00;63355.56;5036491;28;20151;-83
2022/07/06 01:17:51;;;;;;;7.85;4.80;;;;;;;-141.50;100.00;63355.56;5019041;28;20064;-83
2022/07/06 01:20:19;;;;;;;9.45;5.07;;;;;;;-141.50;100.00;63355.56;5036036;28;20295;-83
2022/07/06 01:22:47;;;;;;;10.57;4.70;;;;;;;-141.50;100.00;63355.56;5036541;28;20109;-84
2022/07/06 01:25:14;;;;;;;6.80;4.85;;;;;;;-141.50;100.00;63355.56;5040771;28;20057;-84
2022/07/06 01:27:42;;;;;;;8.35;4.97;;;;;;;-141.50;100.00;63355.56;5040504;28;20049;-84
2022/07/06 01:30:11;;;;;;;6.60;4.63;;;;;;;-141.50;100.00;63355.56;5035204;28;20107;-83
2022/07/06 01:32:39;;;;;;;5.88;4.90;;;;;;;-141.50;100.00;63355.56;5035562;28;20049;-84
2022/07/06 01:35:08;;;;;;;9.57;5.25;;;;;;;-141.50;100.00;63355.56;5037869;28;20061;-84
2022/07/06 01:37:35;;;;;;;9.98;5.07;;;;;;;-141.50;100.00;63355.56;5044026;28;20060;-83
2022/07/06 01:40:09;;;;;;;6.60;4.50;;;;;;;-141.50;100.00;63355.56;5029324;28;20084;-85
2022/07/06 01:42:36;;;;;;;8.10;4.20;;;;;;;-141.50;100.00;63355.56;5036741;28;20105;-84
2022/07/06 01:45:04;;;;;;;8.32;4.68;;;;;;;-141.50;100.00;63355.56;5012596;28;20490;-85
2022/07/06 01:47:32;;;;;;;10.40;5.32;;;;;;;-141.50;100.00;63355.56;5024410;28;20459;-85
2022/07/06 01:50:00;;;;;;;8.98;5.60;;;;;;;-141.50;100.00;63355.56;4998668;28;20230;-84
2022/07/06 01:52:27;;;;;;;9.27;5.05;;;;;;;-141.50;100.00;63355.56;4998652;28;20455;-84
2022/07/06 01:54:55;;;;;;;6.10;5.00;;;;;;;-141.50;100.00;63355.56;5016179;28;20080;-84
2022/07/06 01:57:22;;;;;;;6.13;4.63;;;;;;;-141.50;100.00;63355.56;4997989;28;20594;-84
2022/07/06 01:59:48;;;;;;;6.28;5.35;;;;;;;-141.50;100.00;63355.56;5015901;28;20057;-84
2022/07/06 02:02:15;;;;;;;7.63;5.30;;;;;;;-141.50;100.00;63355.56;5014610;28;20516;-84
2022/07/06 02:04:41;;;;;;;6.53;4.90;;;;;;;-141.50;100.00;63355.56;5015616;28;20133;-84
2022/07/06 02:07:08;;;;;;;12.63;5.25;;;;;;;-141.50;100.00;63355.56;5016346;28;20072;-83
2022/07/06 02:09:35;;;;;;;9.38;4.65;;;;;;;-141.50;100.00;63355.56;5014386;28;20088;-84
2022/07/06 02:12:01;;;;;;;7.90;5.10;;;;;;;-141.50;100.00;63355.56;5015180;28;20056;-85
2022/07/06 02:14:28;;;;;;;6.88;4.88;;;;;;;-141.50;100.00;63355.56;5015517;28;20049;-85
2022/07/06 02:16:54;;;;;;;7.30;4.75;;;;;;;-141.50;100.00;63355.56;4997660;28;20092;-85
2022/07/06 02:19:21;;;;;;;9.20;5.15;;;;;;;-141.50;100.00;63355.56;5016059;28;20050;-82
2022/07/06 02:21:48;;;;;;;9.55;5.75;;;;;;;-141.50;100.00;63355.56;4997433;28;20085;-84
2022/07/06 02:24:14;;;;;;;11.00;5.90;;;;;;;-141.50;100.00;63355.56;5008167;28;20069;-82
2022/07/06 02:26:41;;;;;;;6.97;5.47;;;;;;;-141.50;100.00;63355.56;5032347;28;20644;-84
2022/07/06 02:29:07;;;;;;;7.90;5.18;;;;;;;-141.50;100.00;63355.56;5031787;28;20069;-83
2022/07/06 02:31:34;;;;;;;7.55;4.43;;;;;;;-141.50;100.00;63355.56;5013230;28;20049;-85
2022/07/06 02:34:00;;;;;;;7.90;5.70;;;;;;;-141.50;100.00;63355.56;5017672;28;20086;-86
2022/07/06 02:36:27;;;;;;;10.50;5.35;;;;;;;-141.50;100.00;63355.56;5021689;28;20093;-85
2022/07/06 02:38:54;;;;;;;8.27;5.53;;;;;;;-141.50;100.00;63355.56;5022417;28;20057;-85
2022/07/06 02:41:20;;;;;;;13.25;6.38;;;;;;;-141.50;100.00;63355.56;5018483;28;20115;-85
2022/07/06 02:43:47;;;;;;;16.27;6.60;;;;;;;-141.50;100.00;63355.56;5016285;28;20077;-85
2022/07/06 02:46:13;;;;;;;12.20;6.68;;;;;;;-141.50;100.00;63355.56;5005274;28;20065;-86
2022/07/06 02:48:40;;;;;;;10.73;5.97;;;;;;;-141.50;100.00;63355.56;5004432;28;20064;-84
2022/07/06 02:51:06;;;;;;;9.13;6.22;;;;;;;-141.50;100.00;63355.56;4997254;28;20132;-84
2022/07/06 02:53:33;;;;;;;8.85;6.32;;;;;;;-141.50;100.00;63355.56;5015778;28;20460;-85
2022/07/06 02:55:59;;;;;;;9.48;6.57;;;;;;;-141.50;100.00;63355.56;5016001;28;20054;-85
2022/07/06 02:58:27;;;;;;;8.98;7.10;;;;;;;-141.50;100.00;63355.56;5015592;28;20069;-83
2022/07/06 03:00:53;;;;;;;11.48;6.55;;;;;;;-141.50;100.00;63355.56;4997296;28;20053;-85
2022/07/06 03:03:20;;;;;;;9.85;6.00;;;;;;;-141.50;100.00;63355.56;5018352;28;20115;-84
2022/07/06 03:05:48;;;;;;;8.18;5.45;;;;;;;-141.50;100.00;63355.56;5029917;28;20082;-85
2022/07/06 03:08:15;;;;;;;7.68;6.05;;;;;;;-141.50;100.00;63355.56;5019045;28;20050;-85
2022/07/06 03:10:42;;;;;;;7.93;5.25;;;;;;;-141.50;100.00;63355.56;4997728;28;20077;-86
2022/07/06 03:13:08;;;;;;;10.05;5.10;;;;;;;-141.50;100.00;63355.56;4996202;28;20499;-87
2022/07/06 03:15:35;;;;;;;7.57;4.80;;;;;;;-141.50;100.00;63355.56;4992782;28;20127;-84
2022/07/06 03:18:02;;;;;;;5.80;4.63;;;;;;;-141.50;100.00;63355.56;4994273;28;20137;-86
2022/07/06 03:20:28;;;;;;;9.98;4.95;;;;;;;-141.50;100.00;63355.56;5022710;28;20055;-86
2022/07/06 03:22:55;;;;;;;7.35;5.32;;;;;;;-141.50;100.00;63355.56;5010083;28;20057;-84
2022/07/06 03:25:21;;;;;;;8.32;5.30;;;;;;;-141.50;100.00;63355.56;5029124;28;20038;-86
2022/07/06 03:27:48;;;;;;;10.20;5.85;;;;;;;-141.50;100.00;63355.56;5028861;28;20072;-83
2022/07/06 03:30:14;;;;;;;8.95;6.28;;;;;;;-141.50;100.00;63355.56;5028393;28;20050;-85
2022/07/06 03:32:41;;;;;;;8.43;6.93;;;;;;;-141.50;100.00;63355.56;5009360;28;20092;-84
2022/07/06 03:35:10;;;;;;;10.63;7.63;;;;;;;-141.50;100.00;63355.56;5026088;28;20049;-84
2022/07/06 03:37:37;;;;;;;15.10;7.20;;;;;;;-141.50;100.00;63355.56;5004242;28;20050;-85
2022/07/06 03:40:04;;;;;;;7.55;6.82;;;;;;;-141.50;100.00;63355.56;5017924;28;20080;-87
2022/07/06 03:42:31;;;;;;;12.82;7.10;;;;;;;-141.50;100.00;63355.56;4996899;28;20487;-86
2022/07/06 03:44:57;;;;;;;10.90;7.30;;;;;;;-141.50;100.00;63355.56;5005069;28;20081;-86
2022/07/06 03:47:24;;;;;;;13.55;6.85;;;;;;;-141.50;100.00;63355.56;5019571;28;20338;-85
2022/07/06 03:49:50;;;;;;;10.13;7.32;;;;;;;-141.50;100.00;63355.56;5002898;28;20711;-86
2022/07/06 03:52:17;;;;;;;14.23;8.27;;;;;;;-141.50;100.00;63355.56;5002903;28;20129;-85
2022/07/06 03:54:43;;;;;;;9.70;7.60;;;;;;;-141.50;100.00;63355.56;5020212;28;20082;-84
2022/07/06 03:57:13;;;;;;;17.08;7.63;;;;;;;-141.50;100.00;63355.56;5021749;28;20120;-86
2022/07/06 03:59:40;;;;;;;13.60;7.78;;;;;;;-141.50;100.00;63355.56;5021079;28;20410;-84
2022/07/06 04:02:07;;;;;;;10.07;7.93;;;;;;;-141.50;100.00;63355.56;5030667;28;20056;-85
2022/07/06 04:04:34;;;;;;;12.85;7.65;;;;;;;-141.50;100.00;63355.56;5012627;28;20053;-84
2022/07/06 04:07:00;;;;;;;13.90;7.40;;;;;;;-141.50;100.00;63355.56;5018253;28;20084;-84
2022/07/06 04:09:27;;;;;;;12.52;7.05;;;;;;;-141.50;100.00;63355.56;5017490;28;20058;-84
2022/07/06 04:11:53;;;;;;;11.98;7.75;;;;;;;-141.50;100.00;63355.56;5020277;28;20109;-84
2022/07/06 04:14:20;;;;;;;11.00;7.60;;;;;;;-141.50;100.00;63355.56;5020366;28;20057;-86
2022/07/06 04:16:46;;;;;;;9.48;7.13;;;;;;;-141.50;100.00;63355.56;5018855;28;20054;-85
2022/07/06 04:19:14;;;;;;;16.98;7.35;;;;;;;-141.50;100.00;63355.56;5001425;28;20050;-85
2022/07/06 04:21:40;;;;;;;12.10;6.97;;;;;;;-141.50;100.00;63355.56;5018121;28;20041;-85
2022/07/06 04:24:07;;;;;;;15.25;6.60;;;;;;;-141.50;100.00;63355.56;5019692;28;20078;-86
2022/07/06 04:26:36;;;;;;;13.57;7.05;;;;;;;-141.50;100.00;63355.56;5004317;28;20093;-82
2022/07/06 04:29:03;;;;;;;14.05;7.15;;;;;;;-141.50;100.00;63355.56;5037983;28;20060;-83
2022/07/06 04:31:29;;;;;;;13.70;6.72;;;;;;;-141.50;100.00;63355.56;5031055;28;20073;-85
2022/07/06 04:33:56;;;;;;;9.25;6.72;;;;;;;-141.50;100.00;63355.56;5026924;28;20063;-84
2022/07/06 04:36:22;;;;;;;17.42;6.93;;;;;;;-141.50;100.00;63355.56;5010951;28;20088;-84
2022/07/06 04:38:49;;;;;;;11.15;6.97;;;;;;;-141.50;100.00;63355.56;5015623;28;20493;-83
2022/07/06 04:41:16;;;;;;;11.45;6.65;;;;;;;-141.50;100.00;63355.56;5034449;28;20088;-85
2022/07/06 04:43:43;;;;;;;14.15;6.82;;;;;;;-141.50;100.00;63355.56;5037045;28;20605;-83
2022/07/06 04:46:10;;;;;;;15.65;6.45;;;;;;;-141.50;100.00;63355.56;5036319;28;20286;-83
2022/07/06 04:48:39;;;;;;;16.95;6.18;;;;;;;-141.50;100.00;63355.56;5011167;28;20049;-83
2022/07/06 04:51:06;;;;;;;14.10;5.70;;;;;;;-141.50;100.00;63355.56;5031878;28;20129;-85
2022/07/06 04:53:33;;;;;;;13.98;6.00;;;;;;;-141.50;100.00;63355.56;5009059;28;20965;-85
2022/07/06 04:55:59;;;;;;;12.57;5.65;;;;;;;-141.50;100.00;63355.56;5027047;28;20462;-87
2022/07/06 04:58:26;;;;;;;14.68;5.45;;;;;;;-141.50;100.00;63355.56;5008829;28;20095;-87
2022/07/06 05:00:53;;;;;;;7.72;5.50;;;;;;;-141.50;100.00;63355.56;5030108;28;20054;-86
2022/07/06 05:03:20;;;;;;;14.15;5.60;;;;;;;-141.50;100.00;63355.56;5024735;28;20394;-84
2022/07/06 05:05:47;;;;;;;9.68;4.88;;;;;;;-141.50;100.00;63355.56;5019293;28;20136;-84
2022/07/06 05:08:14;;;;;;;9.85;4.75;;;;;;;-141.50;100.00;63355.56;5021031;28;20634;-85
2022/07/06 05:10:40;;;;;;;11.60;4.80;;;;;;;-141.50;100.00;63355.56;5029531;28;20510;-84
2022/07/06 05:13:07;;;;;;;5.97;3.47;;;;;;;-141.50;100.00;63355.56;5009811;28;20081;-84
2022/07/06 05:15:33;;;;;;;10.00;4.13;;;;;;;-141.50;100.00;63355.56;5027611;28;20432;-85
2022/07/06 05:18:00;;;;;;;11.45;3.38;;;;;;;-141.50;100.00;63355.56;5007941;28;20103;-86
2022/07/06 05:20:27;;;;;;;9.30;3.13;;;;;;;-141.50;100.00;63355.56;5017944;28;20088;-85
2022/07/06 05:22:54;;;;;;;9.70;3.10;;;;;;;-141.50;100.00;63355.56;5044896;28;20063;-85
2022/07/06 05:25:21;;;;;;;12.07;3.28;;;;;;;-141.50;100.00;63355.56;5032244;28;20030;-85
2022/07/06 05:27:50;;;;;;;9.80;2.85;;;;;;;-141.50;100.00;63355.56;5028701;28;20029;-83
2022/07/06 05:30:16;;;;;;;6.18;3.00;;;;;;;-141.50;100.00;63355.56;5049488;28;20040;-84
2022/07/06 05:32:43;;;;;;;6.07;2.80;;;;;;;-141.50;100.00;63355.56;5049012;28;20057;-84
2022/07/06 05:35:10;;;;;;;8.75;2.95;;;;;;;-141.50;100.00;63355.56;5019676;28;20095;-86
2022/07/06 05:37:56;;;;;;;6.88;2.70;;;;;;;-141.50;100.00;63355.56;5012889;28;20530;-84
2022/07/06 05:40:23;;;;;;;11.32;3.13;;;;;;;-141.50;100.00;63355.56;5025585;28;20112;-84
2022/07/06 05:42:49;;;;;;;8.60;2.50;;;;;;;-141.50;100.00;63355.56;5026087;28;20045;-85
2022/07/06 05:45:16;;;;;;;3.65;2.10;;;;;;;-141.50;100.00;63355.56;5028566;28;20085;-84
2022/07/06 05:50:31;;;;;;;5.55;2.40;;;;;;;-141.50;100.00;63355.56;5028299;28;20053;-85
2022/07/06 05:53:03;;;;;;;6.50;2.20;;;;;;;-141.50;100.00;63355.56;5014295;28;20168;-81
2022/07/06 05:55:41;;;;;;;6.15;2.30;;;;;;;-141.50;100.00;63355.56;5029467;28;20057;-84
2022/07/06 05:58:07;;;;;;;8.00;2.10;;;;;;;-141.50;100.00;63355.56;5022692;28;20050;-86
2022/07/06 06:00:34;;;;;;;4.80;1.70;;;;;;;-141.50;100.00;63355.56;5011080;28;20089;-84
2022/07/06 06:03:01;;;;;;;8.93;2.00;;;;;;;-141.50;100.00;63355.56;5026924;28;20057;-86
2022/07/06 06:05:28;;;;;;;9.25;3.13;;;;;;;-141.50;100.00;63355.56;5033783;28;20560;-83
2022/07/06 06:07:54;;;;;;;5.57;1.63;;;;;;;-141.50;100.00;63355.56;5035299;28;20116;-82
2022/07/06 06:10:21;;;;;;;5.13;1.85;;;;;;;-141.50;100.00;63355.56;5021055;28;20469;-81
2022/07/06 06:12:48;;;;;;;9.35;1.80;;;;;;;-141.50;100.00;63355.56;5040680;28;20053;-84
2022/07/06 06:15:15;;;;;;;7.53;1.80;;;;;;;-141.50;100.00;63355.56;5018455;28;20056;-85
2022/07/06 06:17:42;;;;;;;8.85;1.92;;;;;;;-141.50;100.00;63355.56;5020739;28;20632;-84
2022/07/06 06:20:11;;;;;;;4.57;1.40;;;;;;;-141.50;100.00;63355.56;5019429;28;20551;-81
2022/07/06 06:22:50;;;;;;;6.30;1.55;;;;;;;-141.50;100.00;63355.56;5034110;28;20072;-81
2022/07/06 06:25:18;;;;;;;7.88;1.95;;;;;;;-141.50;100.00;63355.56;5014932;28;20053;-85
2022/07/06 06:27:45;;;;;;;8.70;1.48;;;;;;;-141.50;100.00;63355.56;5006109;28;20061;-84
2022/07/06 06:30:13;;;;;;;7.00;1.80;;;;;;;-141.50;100.00;63355.56;5033584;28;20053;-83
2022/07/06 06:32:42;;;;;;;5.40;1.38;;;;;;;-141.50;100.00;63355.56;5035664;28;20046;-84
2022/07/06 06:35:09;;;;;;;10.60;1.70;;;;;;;-141.50;100.00;63355.56;5031934;28;20050;-83
2022/07/06 06:37:36;;;;;;;7.90;1.70;;;;;;;-141.50;100.00;63355.56;5015641;28;20053;-83
2022/07/06 06:40:04;;;;;;;6.57;1.50;;;;;;;-141.50;100.00;63355.56;5012797;28;20124;-80
2022/07/06 06:42:31;;;;;;;5.57;1.42;;;;;;;-141.50;100.00;63355.56;5031340;28;20109;-83
2022/07/06 06:44:59;;;;;;;5.85;1.45;;;;;;;-141.50;100.00;63355.56;5025679;28;20124;-82
2022/07/06 06:47:26;;;;;;;5.45;1.63;;;;;;;-141.50;100.00;63355.56;5020488;28;20092;-82
2022/07/06 06:49:52;;;;;;;6.18;1.60;;;;;;;-141.50;100.00;63355.56;5011690;28;20467;-85
2022/07/06 06:52:19;;;;;;;5.82;1.48;;;;;;;-141.50;100.00;63355.56;4994040;28;20065;-82
2022/07/06 06:55:06;;;;;;;8.55;1.58;;;;;;;-141.50;100.00;63355.56;5013766;28;20054;-84
2022/07/06 06:57:32;;;;;;;7.53;1.90;;;;;;;-141.50;100.00;63355.56;5012282;28;20085;-85
2022/07/06 06:59:59;;;;;;;7.07;1.63;;;;;;;-141.50;100.00;63355.56;5011433;28;20046;-83
2022/07/06 07:02:25;;;;;;;4.80;1.42;;;;;;;-141.50;100.00;63355.56;5010668;28;20080;-82
2022/07/06 07:04:52;;;;;;;4.47;1.50;;;;;;;-141.50;100.00;63355.56;5009877;28;20062;-84
2022/07/06 07:07:19;;;;;;;5.90;1.50;;;;;;;-141.50;100.00;63355.56;5012200;28;20058;-83
2022/07/06 07:09:45;;;;;;;3.90;1.38;;;;;;;-141.50;100.00;63355.56;5003468;28;20077;-84
2022/07/06 07:12:14;;;;;;;6.32;1.40;;;;;;;-141.50;100.00;63355.56;5017382;28;20146;-82
2022/07/06 07:14:41;;;;;;;3.70;1.23;;;;;;;-141.50;100.00;63355.56;5020823;28;20093;-83
2022/07/06 07:17:07;;;;;;;5.75;1.40;;;;;;;-141.50;100.00;63355.56;5021244;28;20096;-83
2022/07/06 07:19:37;;;;;;;7.68;1.50;;;;;;;-141.50;100.00;63355.56;5018029;28;20053;-84
2022/07/06 07:22:09;;;;;;;6.28;1.30;;;;;;;-141.50;100.00;63355.56;5017952;28;20053;-86
2022/07/06 07:24:45;;;;;;;6.65;1.70;;;;;;;-141.50;100.00;63355.56;5015513;28;20065;-83
2022/07/06 07:27:11;;;;;;;7.72;1.80;;;;;;;-141.50;100.00;63355.56;4996998;28;20076;-83
2022/07/06 07:29:38;;;;;;;7.80;1.50;;;;;;;-141.50;100.00;63355.56;5011585;28;20054;-82
2022/07/06 07:32:05;;;;;;;7.18;1.70;;;;;;;-141.50;100.00;63355.56;5010147;28;20129;-82
2022/07/06 07:34:31;;;;;;;4.72;1.42;;;;;;;-141.50;100.00;63355.56;5010130;28;20050;-85
2022/07/06 07:36:58;;;;;;;4.30;1.50;;;;;;;-141.50;100.00;63355.56;5009775;28;20111;-83
2022/07/06 07:39:24;;;;;;;4.07;1.40;;;;;;;-141.50;100.00;63355.56;5012876;28;20474;-80
2022/07/06 07:41:51;;;;;;;4.28;1.40;;;;;;;-141.50;100.00;63355.56;5013755;28;20076;-84
2022/07/06 07:44:18;;;;;;;6.43;1.63;;;;;;;-141.50;100.00;63355.56;4995082;28;20058;-85
2022/07/06 07:46:44;;;;;;;6.50;1.23;;;;;;;-141.50;100.00;63355.56;5027211;28;20081;-87
2022/07/06 07:49:11;;;;;;;3.97;1.50;;;;;;;-141.50;100.00;63355.56;5012737;28;20053;-84
2022/07/06 07:51:47;;;;;;;7.57;1.30;;;;;;;-141.50;100.00;63355.56;5030477;28;20053;-84
2022/07/06 07:54:13;;;;;;;4.25;1.23;;;;;;;-141.50;100.00;63355.56;5013184;28;20076;-83
2022/07/06 07:56:42;;;;;;;5.40;1.50;;;;;;;-141.50;100.00;63355.56;5032069;28;20104;-87
2022/07/06 07:59:11;;;;;;;7.15;1.13;;;;;;;-141.50;100.00;63355.56;5016382;28;20081;-86
2022/07/06 08:01:41;;;;;;;4.32;1.20;;;;;;;-141.50;100.00;63355.56;5015007;28;20076;-86
2022/07/06 08:04:08;;;;;;;8.35;1.33;;;;;;;-141.50;100.00;63355.56;5034091;28;20060;-83
2022/07/06 08:06:35;;;;;;;6.65;1.20;;;;;;;-141.50;100.00;63355.56;5015322;28;20069;-84
2022/07/06 08:09:04;;;;;;;3.05;1.08;;;;;;;-141.50;100.00;63355.56;5040430;28;20129;-85
2022/07/06 08:11:35;;;;;;;6.03;1.63;;;;;;;-141.50;100.00;63355.56;5030533;28;20041;-87
2022/07/06 08:14:34;;;;;;;9.50;1.40;;;;;;;-141.50;100.00;63355.56;5014495;28;20045;-85
2022/07/06 08:17:13;;;;;;;8.15;1.40;;;;;;;-141.50;100.00;63355.56;5012142;28;20080;-85
2022/07/06 08:19:41;;;;;;;4.90;1.58;;;;;;;-141.50;100.00;63355.56;5013396;28;20064;-86
2022/07/06 08:22:13;;;;;;;4.43;1.38;;;;;;;-141.50;100.00;63355.56;5015983;28;20241;-86
2022/07/06 08:24:40;;;;;;;2.97;1.13;;;;;;;-141.50;100.00;63355.56;5014324;28;20077;-85
2022/07/06 08:27:06;;;;;;;5.15;1.50;;;;;;;-141.50;100.00;63355.56;5011590;28;20061;-87
2022/07/06 08:29:33;;;;;;;3.33;1.15;;;;;;;-141.50;100.00;63355.56;5009051;28;20050;-84
2022/07/06 08:32:00;;;;;;;8.13;1.40;;;;;;;-141.50;100.00;63355.56;5030892;28;20061;-85
2022/07/06 08:34:39;;;;;;;5.03;1.42;;;;;;;-141.50;100.00;63355.56;5010240;28;20046;-79
2022/07/06 08:37:06;;;;;;;3.13;1.33;;;;;;;-141.50;100.00;63355.56;5010073;28;20050;-84
2022/07/06 08:39:32;;;;;;;5.72;1.23;;;;;;;-141.50;100.00;63355.56;5011151;28;20124;-85
2022/07/06 08:42:01;;;;;;;6.57;1.63;;;;;;;-141.50;100.00;63355.56;4996413;28;20050;-87
2022/07/06 08:44:29;;;;;;;2.42;0.95;;;;;;;-141.50;100.00;63355.56;5014784;28;20145;-85
2022/07/06 08:46:57;;;;;;;4.38;1.17;;;;;;;-141.50;100.00;63355.56;5009810;28;20426;-86
2022/07/06 08:49:26;;;;;;;6.82;1.08;;;;;;;-141.50;100.00;63355.56;5001174;28;20073;-85
2022/07/06 08:51:54;;;;;;;3.10;1.40;;;;;;;-141.50;100.00;63355.56;4999685;28;20060;-88
2022/07/06 08:54:22;;;;;;;3.50;1.30;;;;;;;-141.50;100.00;63355.56;5000796;28;20069;-86
2022/07/06 08:56:50;;;;;;;5.93;1.17;;;;;;;-141.50;100.00;63355.56;5000937;28;20062;-83
2022/07/06 08:59:16;;;;;;;8.98;1.10;;;;;;;-141.50;100.00;63355.56;5018430;28;20049;-85
2022/07/06 09:01:45;;;;;;;6.13;1.25;;;;;;;-141.50;100.00;63355.56;4999213;28;20529;-85
2022/07/06 09:04:16;;;;;;;4.60;1.00;;;;;;;-141.50;100.00;63355.56;5001458;28;20049;-87
2022/07/06 09:06:46;;;;;;;5.20;1.20;;;;;;;-141.50;100.00;63355.56;5008348;28;20050;-85
2022/07/06 09:09:24;;;;;;;2.97;0.93;;;;;;;-141.50;100.00;63355.56;4998777;28;20058;-85
2022/07/06 09:11:51;;;;;;;3.78;0.93;;;;;;;-141.50;100.00;63355.56;4997477;28;20132;-85
2022/07/06 09:14:21;;;;;;;3.05;0.90;;;;;;;-141.50;100.00;63355.56;5015459;28;20042;-83
2022/07/06 09:16:52;;;;;;;8.30;1.23;;;;;;;-141.50;100.00;63355.56;5017367;28;20096;-84
2022/07/06 09:19:19;;;;;;;6.93;1.17;;;;;;;-141.50;100.00;63355.56;5020415;28;20075;-84
2022/07/06 09:21:46;;;;;;;3.90;1.30;;;;;;;-141.50;100.00;63355.56;5015400;28;20073;-86
2022/07/06 09:24:13;;;;;;;5.75;1.65;;;;;;;-141.50;100.00;63355.56;4997188;28;20041;-81
2022/07/06 09:26:40;;;;;;;6.63;1.70;;;;;;;-141.50;100.00;63355.56;4995361;28;20092;-85
2022/07/06 09:29:08;;;;;;;8.20;1.50;;;;;;;-141.50;100.00;63355.56;4995887;28;20424;-86
2022/07/06 09:31:35;;;;;;;7.35;1.33;;;;;;;-141.50;100.00;63355.56;5014133;28;20060;-85
2022/07/06 09:34:41;;;;;;;3.78;1.23;;;;;;;-141.50;100.00;63355.56;5022547;28;20061;-85
2022/07/06 09:37:15;;;;;;;9.50;1.45;;;;;;;-141.50;100.00;63355.56;5017007;28;20134;-85
2022/07/06 09:39:44;;;;;;;6.57;1.38;;;;;;;-141.50;100.00;63355.56;5034049;28;20064;-85
2022/07/06 09:42:14;;;;;;;4.47;1.30;;;;;;;-141.50;100.00;63355.56;5037334;28;20049;-85
2022/07/06 09:44:44;;;;;;;5.15;1.50;;;;;;;-141.50;100.00;63355.56;5036732;28;20049;-85
2022/07/06 09:47:11;;;;;;;4.50;1.50;;;;;;;-141.50;100.00;63355.56;5032500;28;20053;-83
2022/07/06 09:49:39;;;;;;;5.30;1.30;;;;;;;-141.50;100.00;63355.56;4997925;28;20169;-84
2022/07/06 09:52:26;;;;;;;6.25;1.70;;;;;;;-141.50;100.00;63355.56;5015903;28;20712;-81
2022/07/06 09:54:53;;;;;;;7.20;1.83;;;;;;;-141.50;100.00;63355.56;5023953;28;20092;-84
2022/07/06 09:57:21;;;;;;;5.45;1.50;;;;;;;-141.50;100.00;63355.56;5028400;28;20053;-84
2022/07/06 10:00:05;;;;;;;4.25;1.70;;;;;;;-141.50;100.00;63355.56;5010012;28;20049;-83
2022/07/06 10:02:32;;;;;;;5.22;1.30;;;;;;;-141.50;100.00;63355.56;5002473;28;20064;-87
2022/07/06 10:05:04;;;;;;;4.45;1.73;;;;;;;-141.50;100.00;63355.56;5009101;28;20097;-83
2022/07/06 10:07:39;;;;;;;7.57;1.60;;;;;;;-141.50;100.00;63355.56;4997342;28;20054;-86
2022/07/06 10:10:14;;;;;;;4.25;1.63;;;;;;;-141.50;100.00;63355.56;5013293;28;20399;-84
2022/07/06 10:12:44;;;;;;;7.25;1.75;;;;;;;-141.50;100.00;63355.56;5000521;28;20054;-88
2022/07/06 10:15:11;;;;;;;4.50;1.30;;;;;;;-141.50;100.00;63355.56;5032450;28;20045;-85
2022/07/06 10:17:45;;;;;;;11.02;1.90;;;;;;;-141.50;100.00;63355.56;5022881;28;20052;-85
2022/07/06 10:20:19;;;;;;;4.88;1.60;;;;;;;-141.50;100.00;63355.56;5013102;28;20096;-87
2022/07/06 10:22:49;;;;;;;7.65;1.58;;;;;;;-141.50;100.00;63355.56;4997236;28;20054;-85
2022/07/06 10:25:17;;;;;;;8.18;1.58;;;;;;;-141.50;100.00;63355.56;5020116;28;20054;-86
2022/07/06 10:27:48;;;;;;;6.82;1.30;;;;;;;-141.50;100.00;63355.56;5015757;28;20061;-82
2022/07/06 10:30:16;;;;;;;9.60;1.42;;;;;;;-141.50;100.00;63355.56;4994378;28;20050;-85
2022/07/06 10:32:48;;;;;;;6.80;1.52;;;;;;;-141.50;100.00;63355.56;4994511;28;20069;-86
2022/07/06 10:35:15;;;;;;;4.47;1.27;;;;;;;-141.50;100.00;63355.56;5011368;28;20049;-84
2022/07/06 10:37:42;;;;;;;2.78;1.05;;;;;;;-141.50;100.00;63355.56;4993610;28;20078;-83
2022/07/06 10:42:59;;;;;;;4.05;1.58;;;;;;;-141.50;100.00;63355.56;5011846;28;20054;-80
2022/07/06 10:45:28;;;;;;;7.50;1.30;;;;;;;-141.50;100.00;63355.56;5018387;28;20069;-83
2022/07/06 10:48:10;;;;;;;6.57;1.25;;;;;;;-141.50;100.00;63355.56;5024441;28;20065;-86
2022/07/06 10:50:46;;;;;;;5.07;1.52;;;;;;;-141.50;100.00;63355.56;5024483;28;20057;-82
2022/07/06 10:53:14;;;;;;;4.13;1.25;;;;;;;-141.50;100.00;63355.56;5019680;28;20077;-83
2022/07/06 10:55:47;;;;;;;6.22;1.45;;;;;;;-141.50;100.00;63355.56;5021031;28;20117;-83
2022/07/06 10:58:14;;;;;;;7.70;1.50;;;;;;;-141.50;100.00;63355.56;5032490;28;20525;-80
2022/07/06 11:00:50;;;;;;;7.18;1.58;;;;;;;-141.50;100.00;63355.56;5034056;28;20038;-83
2022/07/06 11:03:34;;;;;;;7.60;1.65;;;;;;;-141.50;100.00;63355.56;5024244;28;20041;-83
2022/07/06 11:06:06;;;;;;;4.55;1.30;;;;;;;-141.50;100.00;63355.56;5021150;28;20069;-82
2022/07/06 11:08:43;;;;;;;4.57;1.30;;;;;;;-141.50;100.00;63355.56;5023326;28;20399;-79
2022/07/06 11:11:16;;;;;;;3.55;1.20;;;;;;;-141.50;100.00;63355.56;5003069;28;20128;-82
2022/07/06 11:14:06;;;;;;;9.02;2.70;;;;;;;-141.50;100.00;63355.56;5018594;28;20536;-84
2022/07/06 11:16:53;;;;;;;3.50;1.10;;;;;;;-141.50;100.00;63355.56;5011331;28;20056;-82
2022/07/06 11:19:23;;;;;;;4.70;1.30;;;;;;;-141.50;100.00;63355.56;5000152;28;20575;-83